Aviation Digital Data Service (ADDS)

Output produced by METARs form (1242 UTC 20 October 2021)
found at http://www.aviationweather.gov/metar/data/
 
METAR text: KHSE 201151Z AUTO 27004KT 10SM CLR 17/14 A3020 RMK AO2 SLP227 T01720144 10183 20167 51006
Conditions at: KHSE (HATTERAS/MITCHEL, NC, US) observed 1151 UTC 20 October 2021
Temperature: 17.2°C (63°F)
Dewpoint: 14.4°C (58°F) [RH = 84%]
Pressure (altimeter): 30.20 inches Hg (1022.8 mb)
[Sea-level pressure: 1022.7 mb]
Winds: from the W (270 degrees) at 5 MPH (4 knots; 2.1 m/s)
Visibility: 10 or more miles (16+ km)
Ceiling: at least 12,000 feet AGL
Clouds: sky clear below 12,000 feet AGL
Weather: automated observation with no human augmentation;
there may or may not be significant weather present at this time

METAR text: KHSE 201051Z AUTO 27004KT 10SM CLR 17/14 A3020 RMK AO2 SLP227 T01720144
Conditions at: KHSE (HATTERAS/MITCHEL, NC, US) observed 1051 UTC 20 October 2021
Temperature: 17.2°C (63°F)
Dewpoint: 14.4°C (58°F) [RH = 84%]
Pressure (altimeter): 30.20 inches Hg (1022.8 mb)
[Sea-level pressure: 1022.7 mb]
Winds: from the W (270 degrees) at 5 MPH (4 knots; 2.1 m/s)
Visibility: 10 or more miles (16+ km)
Ceiling: at least 12,000 feet AGL
Clouds: sky clear below 12,000 feet AGL
Weather: automated observation with no human augmentation;
there may or may not be significant weather present at this time